Time;durP1;ratioP1;P1;durP2;ratioP2;P2;SDS_P1;SDS_P2;PMS_P1;PMS_P2;Temp;Humidity;BMP_temperature;BMP_pressure;BME280_temperature;BME280_humidity;BME280_pressure;Samples;Min_cycle;Max_cycle;Signal;HPM_P1;HPM_P2
2021/01/12 00:00:10;;;;;;;29.00;15.40;;;-5.00;99.90;;;;;;4906773;28;20610;-75
2021/01/12 00:02:34;;;;;;;27.00;14.13;;;-4.80;99.90;;;;;;4905565;28;21010;-75
2021/01/12 00:04:56;;;;;;;23.67;11.00;;;-4.70;99.90;;;;;;4903807;28;20658;-75
2021/01/12 00:07:20;;;;;;;22.40;11.60;;;-4.50;99.90;;;;;;4905487;28;20625;-74
2021/01/12 00:09:42;;;;;;;21.27;11.20;;;-4.40;99.90;;;;;;4901479;28;20621;-72
2021/01/12 00:12:05;;;;;;;22.97;10.93;;;-4.10;99.90;;;;;;4906005;28;20628;-73
2021/01/12 00:14:31;;;;;;;11.70;7.30;;;-4.00;99.90;;;;;;4904121;28;20614;-74
2021/01/12 00:16:53;;;;;;;15.03;8.47;;;-3.80;96.40;;;;;;4886479;28;21057;-73
2021/01/12 00:19:15;;;;;;;18.20;9.57;;;-3.80;95.70;;;;;;4904488;28;20626;-76
2021/01/12 00:21:37;;;;;;;16.37;8.67;;;-3.80;91.90;;;;;;4903906;28;21182;-74
2021/01/12 00:23:59;;;;;;;19.83;10.00;;;-3.70;87.60;;;;;;4888512;28;20619;-74
2021/01/12 00:26:22;;;;;;;19.80;10.07;;;-3.70;80.60;;;;;;4904063;28;20614;-74
2021/01/12 00:28:44;;;;;;;19.80;11.00;;;-3.70;78.10;;;;;;4903344;28;21589;-74
2021/01/12 00:31:07;;;;;;;17.90;9.63;;;-3.70;74.90;;;;;;4904773;28;20995;-73
2021/01/12 00:33:29;;;;;;;17.37;9.67;;;-3.70;72.50;;;;;;4906275;28;20709;-76
2021/01/12 00:35:51;;;;;;;19.17;9.37;;;-3.70;72.40;;;;;;4905691;28;20699;-74
2021/01/12 00:38:13;;;;;;;20.27;10.60;;;-3.60;68.70;;;;;;4903973;28;20629;-73
2021/01/12 00:40:35;;;;;;;17.70;9.13;;;-3.70;65.70;;;;;;4906832;28;20609;-75
2021/01/12 00:42:58;;;;;;;16.27;10.07;;;-3.70;65.50;;;;;;4872448;28;20626;-77
2021/01/12 00:45:20;;;;;;;19.27;9.57;;;-3.60;64.30;;;;;;4896954;28;20675;-73
2021/01/12 00:47:44;;;;;;;16.97;9.03;;;-3.60;62.50;;;;;;4908543;28;20606;-73
2021/01/12 00:50:07;;;;;;;19.00;9.83;;;-3.50;61.40;;;;;;4904320;28;20605;-73
2021/01/12 00:52:29;;;;;;;17.73;9.37;;;-3.60;59.10;;;;;;4909014;28;20617;-74
2021/01/12 00:54:51;;;;;;;17.13;10.10;;;-3.50;55.80;;;;;;4902584;28;21219;-74
2021/01/12 00:57:13;;;;;;;16.03;9.40;;;-3.50;52.50;;;;;;4904853;28;20658;-76
2021/01/12 00:59:35;;;;;;;18.30;10.00;;;-3.50;50.60;;;;;;4905810;28;20671;-76
2021/01/12 01:02:01;;;;;;;15.93;8.90;;;-3.50;48.90;;;;;;4906357;28;20693;-74
2021/01/12 01:04:26;;;;;;;15.40;8.00;;;-3.50;46.90;;;;;;4905521;28;21161;-75
2021/01/12 01:06:48;;;;;;;18.47;10.40;;;-3.50;47.00;;;;;;4906109;28;21218;-73
2021/01/12 01:09:11;;;;;;;19.20;11.20;;;-3.50;45.90;;;;;;4904972;28;20722;-73
2021/01/12 01:11:33;;;;;;;15.27;8.07;;;-3.50;45.30;;;;;;4905206;28;20991;-74
2021/01/12 01:13:57;;;;;;;19.17;10.03;;;-3.50;45.20;;;;;;4902724;28;20670;-74
2021/01/12 01:16:19;;;;;;;15.33;8.60;;;-3.40;42.70;;;;;;4898115;28;20645;-74
2021/01/12 01:18:41;;;;;;;17.97;9.37;;;-3.50;40.70;;;;;;4904565;28;20624;-74
2021/01/12 01:21:05;;;;;;;15.20;9.23;;;-3.50;39.00;;;;;;4905182;28;20658;-76
2021/01/12 01:23:27;;;;;;;17.83;9.27;;;-3.50;39.00;;;;;;4904899;28;21210;-75
2021/01/12 01:25:50;;;;;;;16.40;8.77;;;-3.50;37.20;;;;;;4905068;28;21027;-73
2021/01/12 01:28:12;;;;;;;17.77;9.37;;;-3.50;38.10;;;;;;4904747;28;20662;-73
2021/01/12 01:30:34;;;;;;;17.10;8.53;;;-3.50;35.40;;;;;;4902064;28;20626;-74
2021/01/12 01:32:58;;;;;;;16.60;9.67;;;-3.50;35.50;;;;;;4885950;28;20660;-73
2021/01/12 01:35:20;;;;;;;19.53;10.30;;;-3.50;33.30;;;;;;4912717;28;20663;-74
2021/01/12 01:37:43;;;;;;;20.80;9.97;;;-3.40;31.50;;;;;;4906093;28;20631;-73
2021/01/12 01:40:07;;;;;;;18.17;9.50;;;-3.50;28.70;;;;;;4905766;28;21030;-75
2021/01/12 01:42:29;;;;;;;18.63;9.30;;;-3.40;22.50;;;;;;4900125;28;20600;-74
2021/01/12 01:44:51;;;;;;;17.17;9.07;;;-3.40;22.10;;;;;;4904921;28;20705;-74
2021/01/12 01:47:13;;;;;;;18.00;9.33;;;-3.40;18.80;;;;;;4905936;28;20609;-74
2021/01/12 01:49:35;;;;;;;16.47;8.80;;;-3.50;17.70;;;;;;4907501;28;20698;-74
2021/01/12 01:51:57;;;;;;;15.07;8.23;;;-3.50;16.90;;;;;;4891232;28;20605;-74
2021/01/12 01:54:20;;;;;;;13.77;8.23;;;-3.50;20.40;;;;;;4911489;28;21246;-73
2021/01/12 01:56:42;;;;;;;16.53;9.00;;;-3.60;20.80;;;;;;4901860;28;20653;-73
2021/01/12 01:59:05;;;;;;;15.27;8.50;;;-3.60;19.80;;;;;;4909292;28;20658;-78
2021/01/12 02:01:27;;;;;;;15.17;8.40;;;-3.60;19.30;;;;;;4906364;28;21246;-75
2021/01/12 02:03:58;;;;;;;19.10;9.10;;;-3.60;18.70;;;;;;4909843;28;20577;-74
2021/01/12 02:06:27;;;;;;;15.87;8.67;;;-3.70;17.50;;;;;;4907018;28;20577;-74
2021/01/12 02:08:56;;;;;;;15.13;8.17;;;-3.60;15.50;;;;;;4905597;28;20606;-74
2021/01/12 02:11:21;;;;;;;17.43;8.93;;;-3.70;14.80;;;;;;4907010;28;21000;-73
2021/01/12 02:13:45;;;;;;;15.97;8.70;;;-3.70;13.40;;;;;;4908669;28;20650;-74
2021/01/12 02:16:07;;;;;;;14.33;7.97;;;-3.80;13.90;;;;;;4907841;28;20648;-73
2021/01/12 02:18:34;;;;;;;14.63;8.40;;;-3.70;14.00;;;;;;4905490;28;20637;-75
2021/01/12 02:20:56;;;;;;;12.30;7.40;;;-3.70;12.10;;;;;;4905378;28;20617;-74
2021/01/12 02:23:26;;;;;;;16.87;7.83;;;-3.70;8.10;;;;;;4908549;28;21190;-74
2021/01/12 02:25:51;;;;;;;14.80;8.10;;;-3.70;4.90;;;;;;4910210;28;20613;-74
2021/01/12 02:28:17;;;;;;;13.40;7.83;;;-3.70;4.00;;;;;;4907914;28;20631;-74
2021/01/12 02:30:39;;;;;;;19.00;8.30;;;-3.70;3.10;;;;;;4908795;28;20666;-75
2021/01/12 02:33:02;;;;;;;20.53;9.90;;;-3.60;1.00;;;;;;4909485;28;20956;-75
2021/01/12 02:35:27;;;;;;;17.87;9.20;;;-3.60;1.00;;;;;;4906061;28;20614;-73
2021/01/12 02:37:50;;;;;;;21.57;11.90;;;-3.60;1.00;;;;;;4905084;28;20602;-74
2021/01/12 02:40:14;;;;;;;55.30;30.43;;;-3.70;1.00;;;;;;4889745;28;20670;-74
2021/01/12 02:42:42;;;;;;;66.33;23.67;;;-3.70;1.00;;;;;;4915171;28;20666;-74
2021/01/12 02:45:05;;;;;;;28.40;12.43;;;-3.80;1.00;;;;;;4907811;28;20628;-77
2021/01/12 02:47:27;;;;;;;35.47;15.23;;;-3.90;1.00;;;;;;4906578;28;20659;-75
2021/01/12 02:49:49;;;;;;;24.50;12.80;;;-4.00;1.00;;;;;;4908219;28;20602;-74
2021/01/12 02:52:13;;;;;;;29.80;13.97;;;-4.00;1.00;;;;;;4889923;28;21190;-74
2021/01/12 02:54:35;;;;;;;26.50;13.23;;;-4.00;1.00;;;;;;4911482;28;20617;-74
2021/01/12 02:56:57;;;;;;;23.40;13.30;;;-4.10;1.00;;;;;;4904939;28;20657;-75
2021/01/12 02:59:20;;;;;;;23.57;13.30;;;-4.10;1.00;;;;;;4906768;28;21216;-73
2021/01/12 03:01:42;;;;;;;26.77;14.03;;;-4.10;1.00;;;;;;4894202;28;21057;-76
2021/01/12 03:04:04;;;;;;;33.23;17.67;;;-4.20;1.00;;;;;;4906955;28;21050;-80
2021/01/12 03:06:27;;;;;;;49.57;24.60;;;-4.30;1.00;;;;;;4906103;28;20658;-74
2021/01/12 03:08:49;;;;;;;45.03;23.07;;;-4.40;1.00;;;;;;4904455;28;20666;-73
2021/01/12 03:11:11;;;;;;;43.67;22.33;;;-4.50;1.00;;;;;;4906308;28;20677;-74
2021/01/12 03:13:33;;;;;;;41.77;23.37;;;-4.60;1.00;;;;;;4900406;28;21297;-73
2021/01/12 03:15:56;;;;;;;51.00;23.90;;;-4.70;1.00;;;;;;4908583;28;20643;-74
2021/01/12 03:18:18;;;;;;;50.73;25.10;;;-4.80;1.00;;;;;;4906501;28;20640;-74
2021/01/12 03:20:40;;;;;;;48.07;24.13;;;-4.80;5.50;;;;;;4904617;28;20621;-76
2021/01/12 03:23:03;;;;;;;45.53;22.77;;;-4.90;8.80;;;;;;4887142;28;20637;-73
2021/01/12 03:25:25;;;;;;;43.63;22.33;;;-4.90;9.30;;;;;;4907360;28;20700;-73
2021/01/12 03:27:47;;;;;;;46.73;25.70;;;-4.90;9.40;;;;;;4908220;28;20605;-74
2021/01/12 03:30:10;;;;;;;58.60;29.63;;;-5.00;9.70;;;;;;4906663;28;20703;-74
2021/01/12 03:32:33;;;;;;;60.13;31.37;;;-5.10;9.50;;;;;;4908341;28;20608;-74
2021/01/12 03:34:55;;;;;;;65.03;32.63;;;-5.20;9.30;;;;;;4900173;28;20625;-74
2021/01/12 03:37:17;;;;;;;67.97;32.70;;;-5.30;10.10;;;;;;4910628;28;21005;-74
2021/01/12 03:39:39;;;;;;;69.17;33.20;;;-5.30;10.70;;;;;;4905336;28;20606;-74
2021/01/12 03:42:01;;;;;;;73.23;36.47;;;-5.50;10.90;;;;;;4905505;28;20663;-76
2021/01/12 03:44:24;;;;;;;79.13;39.10;;;-5.50;12.10;;;;;;4907229;28;20605;-74
2021/01/12 03:46:47;;;;;;;92.63;42.90;;;-5.60;13.20;;;;;;4913439;28;20653;-74
2021/01/12 03:49:10;;;;;;;82.23;41.13;;;-5.60;13.50;;;;;;4898306;28;20690;-74
2021/01/12 03:51:33;;;;;;;72.27;36.47;;;-5.70;14.60;;;;;;4906772;28;20632;-74
2021/01/12 03:53:55;;;;;;;76.93;36.93;;;-5.80;20.50;;;;;;4906968;28;20624;-74
2021/01/12 03:56:17;;;;;;;70.80;34.10;;;-5.70;21.80;;;;;;4904460;28;20645;-74
2021/01/12 03:58:39;;;;;;;74.70;36.23;;;-5.70;25.80;;;;;;4904984;28;21197;-73
2021/01/12 04:01:01;;;;;;;54.03;27.27;;;-5.70;27.50;;;;;;4887580;28;20698;-73
2021/01/12 04:03:23;;;;;;;58.30;29.13;;;-5.60;35.00;;;;;;4907629;28;20632;-74
2021/01/12 04:05:46;;;;;;;57.37;30.20;;;-5.40;37.30;;;;;;4902815;28;20668;-74
2021/01/12 04:08:10;;;;;;;60.30;28.70;;;-5.40;34.40;;;;;;4912654;28;21189;-74
2021/01/12 04:10:32;;;;;;;53.33;28.03;;;-5.30;31.10;;;;;;4903506;28;21197;-74
2021/01/12 04:12:54;;;;;;;60.97;29.90;;;-5.30;28.80;;;;;;4903506;28;20613;-73
2021/01/12 04:15:16;;;;;;;58.00;29.30;;;-5.30;26.40;;;;;;4905803;28;20968;-74
2021/01/12 04:17:39;;;;;;;49.00;27.60;;;-5.30;26.00;;;;;;4904965;28;21209;-75
2021/01/12 04:20:01;;;;;;;50.00;26.23;;;-5.30;25.10;;;;;;4910257;28;21407;-74
2021/01/12 04:22:24;;;;;;;48.33;24.47;;;-5.20;25.00;;;;;;4907065;28;20613;-74
2021/01/12 04:24:46;;;;;;;52.87;25.73;;;-5.30;23.20;;;;;;4905783;28;20648;-74
2021/01/12 04:27:08;;;;;;;49.23;24.17;;;-5.20;22.40;;;;;;4905895;28;20616;-75
2021/01/12 04:29:30;;;;;;;46.70;22.07;;;-5.20;17.00;;;;;;4907252;28;20693;-74
2021/01/12 04:31:52;;;;;;;49.67;24.60;;;-5.10;16.50;;;;;;4907124;28;20609;-73
2021/01/12 04:34:14;;;;;;;45.63;24.37;;;-5.00;12.60;;;;;;4905740;28;20749;-75
2021/01/12 04:36:36;;;;;;;45.50;24.03;;;-5.00;8.30;;;;;;4903556;28;20664;-74
2021/01/12 04:39:00;;;;;;;46.93;22.87;;;-5.00;4.80;;;;;;4903196;28;20998;-73
2021/01/12 04:41:23;;;;;;;45.70;23.30;;;-5.00;2.90;;;;;;4904599;28;20660;-73
2021/01/12 04:43:45;;;;;;;46.20;23.87;;;-5.00;1.00;;;;;;4883774;28;20979;-74
2021/01/12 04:46:07;;;;;;;51.13;25.70;;;-5.00;1.00;;;;;;4904191;28;20620;-74
2021/01/12 04:48:29;;;;;;;45.97;22.87;;;-4.90;1.00;;;;;;4904114;28;20674;-73
2021/01/12 04:51:00;;;;;;;48.23;24.07;;;-5.00;1.00;;;;;;4903886;28;20687;-73
2021/01/12 04:53:23;;;;;;;43.77;21.93;;;-5.10;1.00;;;;;;4902824;28;20649;-74
2021/01/12 04:55:45;;;;;;;40.90;21.27;;;-5.10;1.00;;;;;;4904034;28;20651;-74
2021/01/12 04:58:07;;;;;;;41.50;20.13;;;-5.10;1.00;;;;;;4903739;28;20641;-73
2021/01/12 05:00:32;;;;;;;38.50;19.80;;;-5.10;1.00;;;;;;4904289;28;20654;-75
2021/01/12 05:03:00;;;;;;;35.87;18.03;;;-5.10;1.80;;;;;;4907113;28;20679;-73
2021/01/12 05:05:26;;;;;;;32.73;18.47;;;-5.10;3.50;;;;;;4905568;28;20650;-72
2021/01/12 05:07:48;;;;;;;38.73;18.97;;;-4.90;1.00;;;;;;4904946;28;20616;-73
2021/01/12 05:10:12;;;;;;;38.67;19.13;;;-4.90;1.00;;;;;;4903826;28;20616;-74
2021/01/12 05:12:36;;;;;;;38.07;19.03;;;-4.90;1.00;;;;;;4905433;28;20620;-74
2021/01/12 05:14:59;;;;;;;81.27;37.33;;;-4.90;1.00;;;;;;4905604;28;20670;-74
2021/01/12 05:17:21;;;;;;;132.93;54.20;;;-4.80;1.00;;;;;;4904598;28;20664;-74
2021/01/12 05:19:46;;;;;;;65.40;25.53;;;-4.80;1.00;;;;;;4904783;28;21157;-75
2021/01/12 05:22:11;;;;;;;42.00;20.43;;;-4.80;1.00;;;;;;4887084;28;20957;-76
2021/01/12 05:24:40;;;;;;;34.83;18.90;;;-4.80;1.00;;;;;;4913182;28;21020;-74
2021/01/12 05:27:06;;;;;;;41.47;21.33;;;-4.70;1.00;;;;;;4904980;28;20625;-74
2021/01/12 05:29:32;;;;;;;55.47;25.00;;;-4.70;1.00;;;;;;4903069;28;20703;-74
2021/01/12 05:31:55;;;;;;;55.83;25.77;;;-4.80;1.00;;;;;;4885824;28;20692;-73
2021/01/12 05:34:17;;;;;;;45.03;22.33;;;-4.80;1.00;;;;;;4886998;28;20692;-73
2021/01/12 05:36:48;;;;;;;44.43;22.47;;;-4.80;1.00;;;;;;4906081;28;20667;-73
2021/01/12 05:39:15;;;;;;;40.03;22.23;;;-4.90;1.00;;;;;;4904000;28;20636;-74
2021/01/12 05:41:38;;;;;;;81.20;33.23;;;-4.90;1.00;;;;;;4900803;28;21215;-73
2021/01/12 05:44:00;;;;;;;42.20;21.93;;;-4.80;1.00;;;;;;4905047;28;20621;-73
2021/01/12 05:46:23;;;;;;;43.60;17.83;;;-4.80;1.00;;;;;;4907514;28;20661;-73
2021/01/12 05:48:46;;;;;;;35.57;16.13;;;-4.70;1.00;;;;;;4909685;28;20637;-73
2021/01/12 05:51:09;;;;;;;29.80;14.80;;;-4.70;1.00;;;;;;4903550;28;20629;-73
2021/01/12 05:54:02;;;;;;;30.97;15.37;;;-4.50;1.00;;;;;;4906268;28;20617;-73
2021/01/12 05:56:25;;;;;;;28.40;13.83;;;-4.50;1.00;;;;;;4902361;28;20715;-73
2021/01/12 05:58:48;;;;;;;23.63;13.80;;;-4.40;1.00;;;;;;4899972;28;20677;-73
2021/01/12 06:01:10;;;;;;;25.43;13.10;;;-4.40;1.00;;;;;;4907355;28;20670;-74
2021/01/12 06:03:35;;;;;;;20.90;12.13;;;-4.40;1.00;;;;;;4905179;28;20616;-73
2021/01/12 06:05:57;;;;;;;23.87;11.77;;;-4.50;1.00;;;;;;4899271;28;21154;-74
2021/01/12 06:08:20;;;;;;;19.93;10.60;;;-4.50;1.00;;;;;;4908662;28;20620;-74
2021/01/12 06:10:43;;;;;;;20.50;10.43;;;-4.50;1.00;;;;;;4897963;28;20663;-73
2021/01/12 06:13:12;;;;;;;23.67;12.60;;;-4.50;1.00;;;;;;4903366;28;20609;-73
2021/01/12 06:15:40;;;;;;;22.47;11.13;;;-4.50;1.00;;;;;;4885156;28;20626;-73
2021/01/12 06:18:05;;;;;;;25.20;12.03;;;-4.50;1.00;;;;;;4902344;28;20715;-73
2021/01/12 06:20:36;;;;;;;20.77;10.93;;;-4.50;1.00;;;;;;4903222;28;20601;-74
2021/01/12 06:23:07;;;;;;;21.10;11.10;;;-4.50;1.00;;;;;;4902675;28;20636;-73
2021/01/12 06:25:29;;;;;;;22.30;12.87;;;-4.50;1.00;;;;;;4903380;28;20582;-74
2021/01/12 06:27:52;;;;;;;25.27;13.90;;;-4.50;1.00;;;;;;4903026;28;20617;-74
2021/01/12 06:30:17;;;;;;;25.80;14.30;;;-4.50;1.00;;;;;;4904147;28;21333;-73
2021/01/12 06:32:39;;;;;;;26.27;14.67;;;-4.50;1.00;;;;;;4904326;28;21250;-74
2021/01/12 06:35:05;;;;;;;24.13;14.67;;;-4.60;1.00;;;;;;4905934;28;20608;-73
2021/01/12 06:37:28;;;;;;;26.40;15.50;;;-4.60;1.00;;;;;;4901827;28;20726;-73
2021/01/12 06:39:53;;;;;;;31.40;17.63;;;-4.70;1.00;;;;;;4902211;28;20670;-75
2021/01/12 06:42:16;;;;;;;50.13;25.80;;;-4.60;1.00;;;;;;4906206;28;20694;-72
2021/01/12 06:44:39;;;;;;;59.33;29.37;;;-4.70;1.00;;;;;;4890403;28;20691;-73
2021/01/12 06:47:04;;;;;;;54.03;30.17;;;-4.80;1.00;;;;;;4909179;28;20593;-73
2021/01/12 06:49:28;;;;;;;59.17;31.00;;;-4.90;1.00;;;;;;4885093;28;20637;-74
2021/01/12 06:51:59;;;;;;;65.90;35.23;;;-5.00;1.00;;;;;;4902082;28;20667;-74
2021/01/12 06:54:22;;;;;;;66.50;34.00;;;-5.10;1.00;;;;;;4899673;28;21242;-73
2021/01/12 06:56:46;;;;;;;64.47;33.30;;;-5.10;1.00;;;;;;4906168;28;20638;-73
2021/01/12 06:59:14;;;;;;;70.87;36.43;;;-5.10;1.00;;;;;;4906511;28;20663;-74
2021/01/12 07:01:37;;;;;;;71.93;37.57;;;-4.90;1.00;;;;;;4891891;28;20632;-74
2021/01/12 07:04:00;;;;;;;70.63;37.10;;;-5.10;1.00;;;;;;4908352;28;20932;-73
2021/01/12 07:06:26;;;;;;;66.73;33.30;;;-5.10;1.00;;;;;;4908384;28;20662;-72
2021/01/12 07:08:50;;;;;;;65.50;32.80;;;-5.00;1.00;;;;;;4908677;28;21149;-73
2021/01/12 07:11:14;;;;;;;65.17;32.17;;;-4.90;1.00;;;;;;4907751;28;20640;-73
2021/01/12 07:13:37;;;;;;;59.80;29.53;;;-4.90;1.00;;;;;;4910895;28;20613;-74
2021/01/12 07:15:59;;;;;;;54.27;28.13;;;-4.70;1.00;;;;;;4900390;28;20621;-75
2021/01/12 07:18:22;;;;;;;51.83;27.00;;;-4.60;1.00;;;;;;4906611;28;20653;-73
2021/01/12 07:20:44;;;;;;;51.07;28.23;;;-4.40;1.00;;;;;;4907218;28;20663;-74
2021/01/12 07:23:10;;;;;;;52.93;27.20;;;-4.00;1.00;;;;;;4906989;28;20624;-74
2021/01/12 07:25:36;;;;;;;48.87;24.70;;;-3.10;1.00;;;;;;4903869;28;20675;-73
2021/01/12 07:28:07;;;;;;;46.50;23.97;;;-2.10;1.00;;;;;;4905501;28;20638;-73
2021/01/12 07:30:31;;;;;;;44.13;23.00;;;-1.10;1.00;;;;;;4907490;28;21054;-73
2021/01/12 07:32:57;;;;;;;43.80;22.93;;;-0.50;1.00;;;;;;4908084;28;20972;-74
2021/01/12 07:35:19;;;;;;;40.83;22.20;;;-0.20;99.90;;;;;;4907766;28;20636;-74
2021/01/12 07:37:42;;;;;;;40.23;22.23;;;0.00;13.30;;;;;;4906442;28;21337;-75
2021/01/12 07:40:07;;;;;;;44.97;22.23;;;0.20;1.00;;;;;;4900423;28;20626;-76
2021/01/12 07:42:29;;;;;;;39.83;21.43;;;1.10;1.00;;;;;;4907250;28;20670;-75
2021/01/12 07:44:52;;;;;;;40.47;22.17;;;1.10;1.00;;;;;;4915746;28;20616;-74
2021/01/12 07:47:15;;;;;;;40.97;20.23;;;1.60;1.00;;;;;;4912394;28;20616;-74
2021/01/12 07:49:37;;;;;;;50.07;23.63;;;1.70;1.00;;;;;;4900124;28;20665;-73
2021/01/12 07:51:59;;;;;;;92.03;44.63;;;2.10;1.00;;;;;;4916393;28;20662;-74
2021/01/12 07:54:25;;;;;;;91.47;45.93;;;2.30;1.00;;;;;;4916583;28;20654;-74
2021/01/12 07:56:48;;;;;;;63.83;27.57;;;2.10;1.00;;;;;;4897697;28;20617;-73
2021/01/12 07:59:10;;;;;;;46.20;21.90;;;1.90;1.00;;;;;;4916746;28;20655;-74
2021/01/12 08:01:33;;;;;;;49.77;22.40;;;1.90;1.00;;;;;;4904681;28;20644;-74
2021/01/12 08:03:56;;;;;;;44.80;21.07;;;2.20;1.00;;;;;;4909704;28;20596;-74
2021/01/12 08:06:18;;;;;;;31.57;16.20;;;2.10;1.00;;;;;;4883200;28;20981;-74
2021/01/12 08:08:40;;;;;;;43.83;23.20;;;1.60;1.00;;;;;;4902911;28;20671;-74
2021/01/12 08:11:03;;;;;;;71.10;34.77;;;1.60;1.00;;;;;;4886763;28;20631;-74
2021/01/12 08:13:25;;;;;;;53.53;23.63;;;1.40;1.00;;;;;;4907478;28;20637;-76
2021/01/12 08:15:48;;;;;;;40.00;19.90;;;1.00;1.00;;;;;;4906912;28;21165;-73
2021/01/12 08:18:13;;;;;;;42.33;22.03;;;1.00;1.00;;;;;;4904315;28;20657;-74
2021/01/12 08:20:36;;;;;;;28.37;14.13;;;0.90;1.00;;;;;;4909630;28;20670;-75
2021/01/12 08:22:58;;;;;;;33.33;18.53;;;1.00;1.00;;;;;;4907574;28;20613;-74
2021/01/12 08:25:21;;;;;;;27.53;14.10;;;0.80;1.00;;;;;;4898049;28;20636;-73
2021/01/12 08:27:47;;;;;;;24.93;12.87;;;0.90;1.00;;;;;;4893092;28;20978;-76
2021/01/12 08:30:11;;;;;;;30.27;16.33;;;0.90;1.00;;;;;;4910827;28;21224;-73
2021/01/12 08:32:35;;;;;;;40.00;21.13;;;1.00;1.00;;;;;;4907075;28;20657;-72
2021/01/12 08:35:02;;;;;;;37.20;21.03;;;1.10;1.00;;;;;;4905879;28;20788;-75
2021/01/12 08:37:26;;;;;;;12.47;7.73;;;1.20;1.00;;;;;;4903205;28;20657;-73
2021/01/12 08:39:49;;;;;;;13.40;7.90;;;1.30;1.00;;;;;;4904432;28;20613;-74
2021/01/12 08:42:14;;;;;;;10.17;5.40;;;1.30;1.00;;;;;;4903722;28;21200;-72
2021/01/12 08:44:41;;;;;;;9.60;5.50;;;1.30;1.00;;;;;;4912237;28;20697;-74
2021/01/12 08:47:07;;;;;;;8.77;5.23;;;1.30;1.00;;;;;;4906661;28;20636;-74
2021/01/12 08:49:30;;;;;;;9.17;5.07;;;1.40;1.00;;;;;;4899135;28;20644;-73
2021/01/12 08:51:55;;;;;;;8.93;5.40;;;1.40;1.00;;;;;;4904957;28;20994;-74
2021/01/12 08:54:17;;;;;;;10.17;4.80;;;1.40;1.00;;;;;;4899573;28;21240;-73
2021/01/12 08:56:39;;;;;;;9.27;5.20;;;1.40;1.00;;;;;;4908139;28;20625;-74
2021/01/12 08:59:04;;;;;;;7.93;4.80;;;1.40;1.00;;;;;;4901203;28;20686;-73
2021/01/12 09:01:30;;;;;;;6.13;3.87;;;1.50;1.00;;;;;;4903486;28;20644;-73
2021/01/12 09:04:02;;;;;;;7.13;4.10;;;1.50;1.00;;;;;;4882834;28;20652;-72
2021/01/12 09:06:24;;;;;;;7.73;4.40;;;1.40;1.00;;;;;;4893711;28;20626;-75
2021/01/12 09:08:47;;;;;;;8.13;4.87;;;1.50;1.00;;;;;;4884795;28;20629;-72
2021/01/12 09:11:10;;;;;;;9.17;4.83;;;1.50;1.00;;;;;;4905628;28;20613;-73
2021/01/12 09:13:32;;;;;;;6.10;4.00;;;1.50;1.00;;;;;;4903716;28;20609;-75
2021/01/12 09:15:55;;;;;;;7.20;4.13;;;1.60;1.00;;;;;;4885255;28;20661;-72
2021/01/12 09:18:19;;;;;;;6.90;4.60;;;1.60;1.00;;;;;;4910299;28;20652;-73
2021/01/12 09:20:41;;;;;;;7.87;4.50;;;1.60;1.00;;;;;;4903759;28;21017;-74
2021/01/12 09:23:08;;;;;;;6.20;4.17;;;1.60;1.00;;;;;;4902770;28;20651;-75
2021/01/12 09:25:32;;;;;;;10.87;4.50;;;1.60;1.00;;;;;;4906081;28;20597;-75
2021/01/12 09:27:54;;;;;;;6.43;3.83;;;1.70;1.00;;;;;;4903675;28;20655;-76
2021/01/12 09:30:24;;;;;;;5.33;4.30;;;1.80;1.00;;;;;;4902587;28;20652;-75
2021/01/12 09:32:47;;;;;;;6.47;3.80;;;1.80;1.00;;;;;;4905175;28;20626;-73
2021/01/12 09:35:10;;;;;;;7.43;4.53;;;1.80;1.00;;;;;;4889969;28;20628;-73
2021/01/12 09:37:32;;;;;;;6.70;4.70;;;2.00;1.00;;;;;;4869805;28;20659;-74
2021/01/12 09:39:56;;;;;;;7.70;4.83;;;2.00;1.00;;;;;;4902624;28;20597;-73
2021/01/12 09:42:24;;;;;;;7.33;4.30;;;2.00;1.00;;;;;;4904694;28;20624;-75
2021/01/12 09:44:46;;;;;;;9.93;4.70;;;2.20;1.00;;;;;;4901932;28;21235;-75
2021/01/12 09:47:09;;;;;;;9.10;5.10;;;2.20;1.00;;;;;;4906911;28;20612;-73
2021/01/12 09:49:31;;;;;;;8.63;4.70;;;2.20;1.00;;;;;;4910956;28;20609;-72
2021/01/12 09:51:53;;;;;;;7.73;4.80;;;2.30;1.00;;;;;;4911266;28;20608;-72
2021/01/12 09:54:15;;;;;;;8.97;4.83;;;2.30;1.00;;;;;;4908543;28;20620;-75
2021/01/12 09:56:37;;;;;;;6.57;4.37;;;2.50;1.00;;;;;;4914184;28;20665;-72
2021/01/12 09:59:18;;;;;;;7.63;5.00;;;2.50;1.00;;;;;;4895648;28;21204;-72
2021/01/12 10:01:40;;;;;;;8.37;4.80;;;2.50;1.00;;;;;;4883819;28;20227;-72
2021/01/12 10:04:02;;;;;;;6.93;4.47;;;2.70;1.00;;;;;;4893981;28;20266;-73
2021/01/12 10:06:27;;;;;;;7.30;4.67;;;2.70;1.00;;;;;;4905392;28;20196;-74
2021/01/12 10:08:50;;;;;;;7.97;4.80;;;2.70;1.00;;;;;;4912211;28;20613;-73
2021/01/12 10:11:12;;;;;;;8.83;5.30;;;2.80;1.00;;;;;;4909099;28;20890;-72
2021/01/12 10:13:34;;;;;;;6.30;4.63;;;3.00;1.00;;;;;;4904594;28;20188;-75
2021/01/12 10:15:57;;;;;;;8.43;4.90;;;3.30;1.00;;;;;;4912158;28;20204;-73
2021/01/12 10:18:20;;;;;;;5.73;4.20;;;3.80;1.00;;;;;;4909584;28;20204;-74
2021/01/12 10:20:42;;;;;;;8.63;5.30;;;3.90;1.00;;;;;;4909698;28;20642;-72
2021/01/12 10:23:04;;;;;;;6.47;4.63;;;4.00;1.00;;;;;;4905244;28;20215;-73
2021/01/12 10:25:29;;;;;;;6.40;4.60;;;4.00;1.00;;;;;;4899554;28;20230;-72
2021/01/12 10:27:51;;;;;;;6.43;4.50;;;4.00;1.00;;;;;;4883293;28;20192;-73
2021/01/12 10:30:15;;;;;;;7.03;4.40;;;4.00;1.00;;;;;;4900261;28;20274;-74
2021/01/12 10:32:38;;;;;;;8.40;5.37;;;3.90;1.00;;;;;;4900411;28;20230;-73
2021/01/12 10:35:01;;;;;;;8.17;4.77;;;3.90;1.00;;;;;;4903146;28;20229;-72
2021/01/12 10:37:23;;;;;;;7.43;4.87;;;4.00;1.00;;;;;;4913908;28;20234;-72
2021/01/12 10:39:46;;;;;;;8.53;5.40;;;4.20;1.00;;;;;;4897645;28;21020;-74
2021/01/12 10:42:10;;;;;;;7.53;4.87;;;4.50;1.00;;;;;;4912982;28;20187;-74
2021/01/12 10:44:32;;;;;;;7.40;5.17;;;4.90;1.00;;;;;;4914041;28;20242;-74
2021/01/12 10:46:57;;;;;;;7.83;5.43;;;5.10;1.00;;;;;;4900113;28;20657;-74
2021/01/12 10:49:20;;;;;;;7.03;5.37;;;5.20;1.00;;;;;;4908465;28;20253;-74
2021/01/12 10:51:43;;;;;;;7.87;5.30;;;5.20;1.00;;;;;;4907406;28;20580;-74
2021/01/12 10:54:05;;;;;;;6.40;4.93;;;5.20;1.00;;;;;;4902988;28;20196;-73
2021/01/12 10:56:27;;;;;;;6.17;4.63;;;5.20;1.00;;;;;;4912981;28;20677;-75
2021/01/12 10:58:51;;;;;;;8.17;5.03;;;5.10;1.00;;;;;;4913123;28;20227;-73
2021/01/12 11:01:15;;;;;;;9.90;4.73;;;4.90;1.00;;;;;;4915600;28;20207;-72
2021/01/12 11:03:39;;;;;;;5.73;4.20;;;4.60;1.00;;;;;;4915408;28;20770;-72
2021/01/12 11:06:02;;;;;;;5.83;4.00;;;4.30;1.00;;;;;;4916881;28;20596;-73
2021/01/12 11:08:25;;;;;;;6.27;4.47;;;4.00;1.00;;;;;;4897505;28;20247;-72
2021/01/12 11:10:47;;;;;;;5.80;4.00;;;3.80;1.00;;;;;;4898900;28;20197;-72
2021/01/12 11:13:09;;;;;;;7.00;4.57;;;3.60;1.00;;;;;;4917410;28;20180;-72
2021/01/12 11:15:38;;;;;;;6.27;3.90;;;3.50;1.00;;;;;;4915536;28;20237;-73
2021/01/12 11:18:03;;;;;;;9.83;4.40;;;3.30;1.00;;;;;;4915396;28;20232;-75
2021/01/12 11:20:28;;;;;;;6.70;4.53;;;3.30;1.00;;;;;;4914833;28;20199;-72
2021/01/12 11:22:51;;;;;;;5.67;4.03;;;3.20;1.00;;;;;;4917027;28;20188;-73
2021/01/12 11:25:15;;;;;;;6.57;4.30;;;3.10;1.00;;;;;;4915757;28;20184;-73
2021/01/12 11:27:41;;;;;;;5.30;3.57;;;3.00;1.00;;;;;;4898310;28;20193;-75
2021/01/12 11:30:07;;;;;;;6.53;3.90;;;2.80;1.00;;;;;;4914867;28;20697;-75
2021/01/12 11:32:31;;;;;;;8.33;4.40;;;2.70;1.00;;;;;;4916914;28;20638;-74
2021/01/12 11:34:55;;;;;;;6.80;4.27;;;2.80;1.00;;;;;;4915452;28;20609;-72
2021/01/12 11:37:17;;;;;;;7.63;4.77;;;2.80;1.00;;;;;;4916399;28;20524;-74
2021/01/12 11:39:41;;;;;;;8.20;4.37;;;3.00;1.00;;;;;;4898093;28;21103;-73
2021/01/12 11:42:05;;;;;;;8.67;4.90;;;2.90;1.00;;;;;;4914575;28;20662;-74
2021/01/12 11:44:27;;;;;;;9.13;5.20;;;3.00;1.00;;;;;;4916737;28;20593;-73
2021/01/12 11:46:49;;;;;;;8.37;5.00;;;2.90;1.00;;;;;;4915988;28;20573;-74
2021/01/12 11:49:12;;;;;;;7.47;5.20;;;2.90;1.00;;;;;;4914737;28;20192;-73
2021/01/12 11:51:36;;;;;;;7.50;5.40;;;2.80;1.00;;;;;;4915773;28;20549;-73
2021/01/12 11:53:58;;;;;;;7.73;5.37;;;2.70;1.00;;;;;;4916521;28;20237;-72
2021/01/12 11:56:21;;;;;;;10.37;5.33;;;2.60;1.00;;;;;;4916405;28;20180;-73
2021/01/12 11:58:43;;;;;;;11.63;5.40;;;2.50;1.00;;;;;;4914915;28;20648;-75
2021/01/12 12:01:05;;;;;;;8.67;5.60;;;2.50;1.00;;;;;;4913996;28;20597;-72
2021/01/12 12:03:27;;;;;;;8.53;5.50;;;2.50;1.00;;;;;;4914084;28;20204;-74
2021/01/12 12:05:49;;;;;;;8.90;5.60;;;2.30;1.00;;;;;;4913654;28;20643;-73
2021/01/12 12:08:11;;;;;;;10.20;6.13;;;2.30;1.00;;;;;;4899810;28;20629;-74
2021/01/12 12:10:33;;;;;;;11.83;5.97;;;2.30;1.00;;;;;;4915933;28;21257;-73
2021/01/12 12:12:58;;;;;;;10.80;6.07;;;2.30;1.00;;;;;;4908674;28;20623;-73
2021/01/12 12:15:21;;;;;;;10.37;6.17;;;2.30;1.00;;;;;;4900339;28;21192;-73
2021/01/12 12:17:53;;;;;;;10.87;6.60;;;2.30;1.00;;;;;;4887088;28;20727;-73
2021/01/12 12:20:16;;;;;;;11.53;7.00;;;2.30;1.00;;;;;;4898996;28;20261;-73
2021/01/12 12:22:38;;;;;;;9.90;5.97;;;2.30;1.00;;;;;;4915707;28;20654;-75
2021/01/12 12:25:00;;;;;;;13.00;6.60;;;2.20;1.00;;;;;;4913998;28;20200;-73